RJBM(METAR)
10/20 06:00
METAR RJBM 192100Z 00000KT 9999 FEW004 BKN015 OVC040 15/13 Q1016 RMK
1ST004 5CU015 8SC040 A3001=
戻る
トップページへ戻る
IMOC Co,.Ltd.